sensor_id;sensor_type;location;lat;lon;timestamp;temperature;humidity
23681;DHT22;62915;50.832;4.462;2022-08-25T00:01:36;24.80;99.90
23681;DHT22;62915;50.832;4.462;2022-08-25T00:04:05;24.70;99.90
23681;DHT22;62915;50.832;4.462;2022-08-25T00:06:31;24.70;99.90
23681;DHT22;62915;50.832;4.462;2022-08-25T00:08:57;24.60;99.90
23681;DHT22;62915;50.832;4.462;2022-08-25T00:11:26;24.60;99.90
23681;DHT22;62915;50.832;4.462;2022-08-25T00:13:56;24.60;99.90
23681;DHT22;62915;50.832;4.462;2022-08-25T00:16:23;24.60;99.90
23681;DHT22;62915;50.832;4.462;2022-08-25T00:18:54;24.60;99.90
23681;DHT22;62915;50.832;4.462;2022-08-25T00:21:22;24.50;99.90
23681;DHT22;62915;50.832;4.462;2022-08-25T00:23:48;24.50;99.90
23681;DHT22;62915;50.832;4.462;2022-08-25T00:26:15;24.50;99.90
23681;DHT22;62915;50.832;4.462;2022-08-25T00:28:41;24.50;99.90
23681;DHT22;62915;50.832;4.462;2022-08-25T00:31:11;24.50;99.90
23681;DHT22;62915;50.832;4.462;2022-08-25T00:33:37;24.50;99.90
23681;DHT22;62915;50.832;4.462;2022-08-25T00:36:03;24.40;99.90
23681;DHT22;62915;50.832;4.462;2022-08-25T00:38:29;24.30;99.90
23681;DHT22;62915;50.832;4.462;2022-08-25T00:40:56;24.30;99.90
23681;DHT22;62915;50.832;4.462;2022-08-25T00:43:56;24.30;99.90
23681;DHT22;62915;50.832;4.462;2022-08-25T00:46:27;24.30;99.90
23681;DHT22;62915;50.832;4.462;2022-08-25T00:48:58;24.20;99.90
23681;DHT22;62915;50.832;4.462;2022-08-25T00:51:41;24.20;99.90
23681;DHT22;62915;50.832;4.462;2022-08-25T00:54:11;24.10;99.90
23681;DHT22;62915;50.832;4.462;2022-08-25T00:56:38;24.10;99.90
23681;DHT22;62915;50.832;4.462;2022-08-25T00:59:04;24.10;99.90
23681;DHT22;62915;50.832;4.462;2022-08-25T01:01:31;24.10;99.90
23681;DHT22;62915;50.832;4.462;2022-08-25T01:03:56;24.10;99.90
23681;DHT22;62915;50.832;4.462;2022-08-25T01:06:22;24.10;99.90
23681;DHT22;62915;50.832;4.462;2022-08-25T01:08:49;24.10;99.90
23681;DHT22;62915;50.832;4.462;2022-08-25T01:11:16;24.00;99.90
23681;DHT22;62915;50.832;4.462;2022-08-25T01:13:44;24.10;99.90
23681;DHT22;62915;50.832;4.462;2022-08-25T01:16:14;24.10;99.90
23681;DHT22;62915;50.832;4.462;2022-08-25T01:18:52;24.10;99.90
23681;DHT22;62915;50.832;4.462;2022-08-25T01:21:21;24.10;99.90
23681;DHT22;62915;50.832;4.462;2022-08-25T01:23:49;24.00;99.90
23681;DHT22;62915;50.832;4.462;2022-08-25T01:28:42;23.90;99.90
23681;DHT22;62915;50.832;4.462;2022-08-25T01:31:29;23.90;99.90
23681;DHT22;62915;50.832;4.462;2022-08-25T01:33:56;23.90;99.90
23681;DHT22;62915;50.832;4.462;2022-08-25T01:36:23;23.90;99.90
23681;DHT22;62915;50.832;4.462;2022-08-25T01:38:49;23.90;99.90
23681;DHT22;62915;50.832;4.462;2022-08-25T01:43:55;23.90;99.90
23681;DHT22;62915;50.832;4.462;2022-08-25T01:46:21;23.80;99.90
23681;DHT22;62915;50.832;4.462;2022-08-25T01:48:47;23.80;99.90
23681;DHT22;62915;50.832;4.462;2022-08-25T01:51:19;23.70;99.90
23681;DHT22;62915;50.832;4.462;2022-08-25T01:53:45;23.70;99.90
23681;DHT22;62915;50.832;4.462;2022-08-25T01:56:14;23.60;99.90
23681;DHT22;62915;50.832;4.462;2022-08-25T01:58:43;23.60;99.90
23681;DHT22;62915;50.832;4.462;2022-08-25T02:01:13;23.50;99.90
23681;DHT22;62915;50.832;4.462;2022-08-25T02:03:43;23.50;99.90
23681;DHT22;62915;50.832;4.462;2022-08-25T02:06:17;23.50;99.90
23681;DHT22;62915;50.832;4.462;2022-08-25T02:08:43;23.50;99.90
23681;DHT22;62915;50.832;4.462;2022-08-25T02:11:12;23.50;99.90
23681;DHT22;62915;50.832;4.462;2022-08-25T02:13:39;23.40;99.90
23681;DHT22;62915;50.832;4.462;2022-08-25T02:16:05;23.40;99.90
23681;DHT22;62915;50.832;4.462;2022-08-25T02:18:32;23.40;99.90
23681;DHT22;62915;50.832;4.462;2022-08-25T02:20:57;23.40;99.90
23681;DHT22;62915;50.832;4.462;2022-08-25T02:23:23;23.30;99.90
23681;DHT22;62915;50.832;4.462;2022-08-25T02:25:49;23.30;99.90
23681;DHT22;62915;50.832;4.462;2022-08-25T02:28:15;23.30;99.90
23681;DHT22;62915;50.832;4.462;2022-08-25T02:30:41;23.20;99.90
23681;DHT22;62915;50.832;4.462;2022-08-25T02:33:08;23.20;99.90
23681;DHT22;62915;50.832;4.462;2022-08-25T02:35:34;23.10;99.90
23681;DHT22;62915;50.832;4.462;2022-08-25T02:38:00;23.10;99.90
23681;DHT22;62915;50.832;4.462;2022-08-25T02:40:26;23.10;99.90
23681;DHT22;62915;50.832;4.462;2022-08-25T02:42:52;23.00;99.90
23681;DHT22;62915;50.832;4.462;2022-08-25T02:45:20;23.00;99.90
23681;DHT22;62915;50.832;4.462;2022-08-25T02:47:47;22.90;99.90
23681;DHT22;62915;50.832;4.462;2022-08-25T02:50:13;23.00;99.90
23681;DHT22;62915;50.832;4.462;2022-08-25T02:52:39;22.90;99.90
23681;DHT22;62915;50.832;4.462;2022-08-25T02:55:08;22.90;99.90
23681;DHT22;62915;50.832;4.462;2022-08-25T02:57:34;22.90;99.90
23681;DHT22;62915;50.832;4.462;2022-08-25T03:00:01;22.80;99.90
23681;DHT22;62915;50.832;4.462;2022-08-25T03:02:27;22.90;99.90
23681;DHT22;62915;50.832;4.462;2022-08-25T03:04:53;22.80;99.90
23681;DHT22;62915;50.832;4.462;2022-08-25T03:07:20;22.80;99.90
23681;DHT22;62915;50.832;4.462;2022-08-25T03:09:46;22.80;99.90
23681;DHT22;62915;50.832;4.462;2022-08-25T03:12:13;22.80;99.90
23681;DHT22;62915;50.832;4.462;2022-08-25T03:14:39;22.70;99.90
23681;DHT22;62915;50.832;4.462;2022-08-25T03:17:07;22.80;99.90
23681;DHT22;62915;50.832;4.462;2022-08-25T03:19:33;22.70;99.90
23681;DHT22;62915;50.832;4.462;2022-08-25T03:21:59;22.70;99.90
23681;DHT22;62915;50.832;4.462;2022-08-25T03:24:26;22.70;99.90
23681;DHT22;62915;50.832;4.462;2022-08-25T03:26:53;22.70;99.90
23681;DHT22;62915;50.832;4.462;2022-08-25T03:29:25;22.70;99.90
23681;DHT22;62915;50.832;4.462;2022-08-25T03:31:53;22.70;99.90
23681;DHT22;62915;50.832;4.462;2022-08-25T03:34:29;22.70;99.90
23681;DHT22;62915;50.832;4.462;2022-08-25T03:36:55;22.70;99.90
23681;DHT22;62915;50.832;4.462;2022-08-25T03:39:23;22.80;99.90
23681;DHT22;62915;50.832;4.462;2022-08-25T03:41:50;22.80;99.90
23681;DHT22;62915;50.832;4.462;2022-08-25T03:44:17;22.90;99.90
23681;DHT22;62915;50.832;4.462;2022-08-25T03:46:46;23.00;99.90
23681;DHT22;62915;50.832;4.462;2022-08-25T03:49:16;23.10;99.90
23681;DHT22;62915;50.832;4.462;2022-08-25T03:51:47;23.10;99.90
23681;DHT22;62915;50.832;4.462;2022-08-25T03:54:15;23.20;99.90
23681;DHT22;62915;50.832;4.462;2022-08-25T03:56:42;23.20;99.90
23681;DHT22;62915;50.832;4.462;2022-08-25T03:59:08;23.30;99.90
23681;DHT22;62915;50.832;4.462;2022-08-25T04:01:35;23.20;99.90
23681;DHT22;62915;50.832;4.462;2022-08-25T04:04:02;23.30;99.90
23681;DHT22;62915;50.832;4.462;2022-08-25T04:06:30;23.40;99.90
23681;DHT22;62915;50.832;4.462;2022-08-25T04:08:56;23.30;99.90
23681;DHT22;62915;50.832;4.462;2022-08-25T04:11:24;23.30;99.90
23681;DHT22;62915;50.832;4.462;2022-08-25T04:13:52;23.20;99.90
23681;DHT22;62915;50.832;4.462;2022-08-25T04:16:23;23.20;99.90
23681;DHT22;62915;50.832;4.462;2022-08-25T04:18:51;23.10;99.90
23681;DHT22;62915;50.832;4.462;2022-08-25T04:21:18;23.10;99.90
23681;DHT22;62915;50.832;4.462;2022-08-25T04:23:46;23.10;99.90
23681;DHT22;62915;50.832;4.462;2022-08-25T04:26:16;23.10;99.90
23681;DHT22;62915;50.832;4.462;2022-08-25T04:28:44;23.20;99.90
23681;DHT22;62915;50.832;4.462;2022-08-25T04:31:12;23.30;99.90
23681;DHT22;62915;50.832;4.462;2022-08-25T04:33:41;23.40;99.90
23681;DHT22;62915;50.832;4.462;2022-08-25T04:36:08;23.40;99.90
23681;DHT22;62915;50.832;4.462;2022-08-25T04:38:36;23.40;99.90
23681;DHT22;62915;50.832;4.462;2022-08-25T04:41:04;23.40;99.90
23681;DHT22;62915;50.832;4.462;2022-08-25T04:43:31;23.50;99.90
23681;DHT22;62915;50.832;4.462;2022-08-25T04:45:58;23.50;99.90
23681;DHT22;62915;50.832;4.462;2022-08-25T04:48:24;23.50;99.90
23681;DHT22;62915;50.832;4.462;2022-08-25T04:50:51;23.50;99.90
23681;DHT22;62915;50.832;4.462;2022-08-25T04:53:17;23.60;99.90
23681;DHT22;62915;50.832;4.462;2022-08-25T04:55:45;23.60;99.90
23681;DHT22;62915;50.832;4.462;2022-08-25T04:58:15;23.60;99.90
23681;DHT22;62915;50.832;4.462;2022-08-25T05:00:41;23.60;99.90
23681;DHT22;62915;50.832;4.462;2022-08-25T05:03:08;23.60;99.90
23681;DHT22;62915;50.832;4.462;2022-08-25T05:05:38;23.60;99.90
23681;DHT22;62915;50.832;4.462;2022-08-25T05:08:05;23.60;99.90
23681;DHT22;62915;50.832;4.462;2022-08-25T05:10:32;23.60;99.90
23681;DHT22;62915;50.832;4.462;2022-08-25T05:12:58;23.60;99.90
23681;DHT22;62915;50.832;4.462;2022-08-25T05:15:27;23.60;99.90
23681;DHT22;62915;50.832;4.462;2022-08-25T05:18:12;23.60;99.90
23681;DHT22;62915;50.832;4.462;2022-08-25T05:20:38;23.60;99.90
23681;DHT22;62915;50.832;4.462;2022-08-25T05:23:03;23.60;99.90
23681;DHT22;62915;50.832;4.462;2022-08-25T05:25:30;23.60;99.90
23681;DHT22;62915;50.832;4.462;2022-08-25T05:27:56;23.60;99.90
23681;DHT22;62915;50.832;4.462;2022-08-25T05:30:22;23.70;99.90
23681;DHT22;62915;50.832;4.462;2022-08-25T05:32:48;23.80;99.90
23681;DHT22;62915;50.832;4.462;2022-08-25T05:35:14;23.80;99.90
23681;DHT22;62915;50.832;4.462;2022-08-25T05:37:41;23.80;99.90
23681;DHT22;62915;50.832;4.462;2022-08-25T05:40:07;23.90;99.90
23681;DHT22;62915;50.832;4.462;2022-08-25T05:42:34;23.90;99.90
23681;DHT22;62915;50.832;4.462;2022-08-25T05:45:00;23.80;99.90
23681;DHT22;62915;50.832;4.462;2022-08-25T05:47:26;23.90;99.90
23681;DHT22;62915;50.832;4.462;2022-08-25T05:49:51;24.00;99.90
23681;DHT22;62915;50.832;4.462;2022-08-25T05:52:17;24.00;99.90
23681;DHT22;62915;50.832;4.462;2022-08-25T05:54:43;24.00;99.90
23681;DHT22;62915;50.832;4.462;2022-08-25T05:57:09;24.10;99.90
23681;DHT22;62915;50.832;4.462;2022-08-25T05:59:34;24.10;99.90
23681;DHT22;62915;50.832;4.462;2022-08-25T06:02:01;24.10;99.90
23681;DHT22;62915;50.832;4.462;2022-08-25T06:04:45;24.20;99.90
23681;DHT22;62915;50.832;4.462;2022-08-25T06:07:11;24.30;99.90
23681;DHT22;62915;50.832;4.462;2022-08-25T06:09:38;24.30;99.90
23681;DHT22;62915;50.832;4.462;2022-08-25T06:12:04;24.40;99.90
23681;DHT22;62915;50.832;4.462;2022-08-25T06:14:30;24.50;99.90
23681;DHT22;62915;50.832;4.462;2022-08-25T06:16:56;24.50;99.90
23681;DHT22;62915;50.832;4.462;2022-08-25T06:19:22;24.50;99.90
23681;DHT22;62915;50.832;4.462;2022-08-25T06:21:48;24.60;99.90
23681;DHT22;62915;50.832;4.462;2022-08-25T06:24:14;24.60;99.90
23681;DHT22;62915;50.832;4.462;2022-08-25T06:26:39;24.60;99.90
23681;DHT22;62915;50.832;4.462;2022-08-25T06:29:05;24.60;99.90
23681;DHT22;62915;50.832;4.462;2022-08-25T06:31:31;24.70;99.90
23681;DHT22;62915;50.832;4.462;2022-08-25T06:33:57;24.70;99.90
23681;DHT22;62915;50.832;4.462;2022-08-25T06:36:23;24.60;99.90
23681;DHT22;62915;50.832;4.462;2022-08-25T06:38:49;24.60;99.90
23681;DHT22;62915;50.832;4.462;2022-08-25T06:41:15;24.60;99.90
23681;DHT22;62915;50.832;4.462;2022-08-25T06:43:42;24.70;99.90
23681;DHT22;62915;50.832;4.462;2022-08-25T06:46:13;24.70;99.90
23681;DHT22;62915;50.832;4.462;2022-08-25T06:48:39;24.80;99.90
23681;DHT22;62915;50.832;4.462;2022-08-25T06:51:11;24.80;99.90
23681;DHT22;62915;50.832;4.462;2022-08-25T06:53:37;24.90;99.90
23681;DHT22;62915;50.832;4.462;2022-08-25T06:56:04;24.90;99.90
23681;DHT22;62915;50.832;4.462;2022-08-25T06:58:31;24.90;99.90
23681;DHT22;62915;50.832;4.462;2022-08-25T07:01:16;25.00;99.90
23681;DHT22;62915;50.832;4.462;2022-08-25T07:03:42;25.00;99.90
23681;DHT22;62915;50.832;4.462;2022-08-25T07:06:09;24.90;99.90
23681;DHT22;62915;50.832;4.462;2022-08-25T07:08:35;24.90;99.90
23681;DHT22;62915;50.832;4.462;2022-08-25T07:11:06;24.90;99.90
23681;DHT22;62915;50.832;4.462;2022-08-25T07:13:32;25.00;99.90
23681;DHT22;62915;50.832;4.462;2022-08-25T07:15:59;25.10;99.90
23681;DHT22;62915;50.832;4.462;2022-08-25T07:18:25;25.10;99.90
23681;DHT22;62915;50.832;4.462;2022-08-25T07:20:51;25.20;99.90
23681;DHT22;62915;50.832;4.462;2022-08-25T07:23:19;25.40;99.90
23681;DHT22;62915;50.832;4.462;2022-08-25T07:25:46;25.50;99.90
23681;DHT22;62915;50.832;4.462;2022-08-25T07:28:12;25.50;99.90
23681;DHT22;62915;50.832;4.462;2022-08-25T07:30:39;25.60;99.90
23681;DHT22;62915;50.832;4.462;2022-08-25T07:33:05;25.60;99.90
23681;DHT22;62915;50.832;4.462;2022-08-25T07:35:30;25.70;99.90
23681;DHT22;62915;50.832;4.462;2022-08-25T07:37:57;25.70;99.90
23681;DHT22;62915;50.832;4.462;2022-08-25T07:40:27;25.70;99.90
23681;DHT22;62915;50.832;4.462;2022-08-25T07:42:55;25.80;99.90
23681;DHT22;62915;50.832;4.462;2022-08-25T07:45:23;25.80;99.90
23681;DHT22;62915;50.832;4.462;2022-08-25T07:47:58;25.70;99.90
23681;DHT22;62915;50.832;4.462;2022-08-25T07:50:25;25.80;99.90
23681;DHT22;62915;50.832;4.462;2022-08-25T07:52:51;25.80;99.90
23681;DHT22;62915;50.832;4.462;2022-08-25T07:55:17;25.90;99.90
23681;DHT22;62915;50.832;4.462;2022-08-25T07:57:43;25.90;99.90
23681;DHT22;62915;50.832;4.462;2022-08-25T08:00:13;25.90;99.90
23681;DHT22;62915;50.832;4.462;2022-08-25T08:02:40;26.00;99.90
23681;DHT22;62915;50.832;4.462;2022-08-25T08:05:07;26.10;99.90
23681;DHT22;62915;50.832;4.462;2022-08-25T08:07:34;26.20;99.90
23681;DHT22;62915;50.832;4.462;2022-08-25T08:10:01;26.30;99.90
23681;DHT22;62915;50.832;4.462;2022-08-25T08:12:29;26.40;99.90
23681;DHT22;62915;50.832;4.462;2022-08-25T08:14:57;26.60;99.90
23681;DHT22;62915;50.832;4.462;2022-08-25T08:17:25;26.70;99.90
23681;DHT22;62915;50.832;4.462;2022-08-25T08:19:52;26.80;99.90
23681;DHT22;62915;50.832;4.462;2022-08-25T08:22:20;27.00;99.90
23681;DHT22;62915;50.832;4.462;2022-08-25T08:24:47;27.20;99.90
23681;DHT22;62915;50.832;4.462;2022-08-25T08:27:14;27.50;99.90
23681;DHT22;62915;50.832;4.462;2022-08-25T08:29:41;27.70;99.90
23681;DHT22;62915;50.832;4.462;2022-08-25T08:32:10;27.90;99.90
23681;DHT22;62915;50.832;4.462;2022-08-25T08:34:43;28.10;99.90
23681;DHT22;62915;50.832;4.462;2022-08-25T08:37:11;28.30;99.90
23681;DHT22;62915;50.832;4.462;2022-08-25T08:39:37;28.40;99.70
23681;DHT22;62915;50.832;4.462;2022-08-25T08:48:04;29.20;99.00
23681;DHT22;62915;50.832;4.462;2022-08-25T08:53:30;29.40;97.70
23681;DHT22;62915;50.832;4.462;2022-08-25T08:55:58;29.60;98.30
23681;DHT22;62915;50.832;4.462;2022-08-25T09:01:35;30.00;98.80
23681;DHT22;62915;50.832;4.462;2022-08-25T09:04:28;30.20;96.60
23681;DHT22;62915;50.832;4.462;2022-08-25T09:06:58;30.50;95.10
23681;DHT22;62915;50.832;4.462;2022-08-25T09:09:28;30.60;94.30
23681;DHT22;62915;50.832;4.462;2022-08-25T09:12:08;30.50;94.00
23681;DHT22;62915;50.832;4.462;2022-08-25T09:29:03;31.40;93.80
23681;DHT22;62915;50.832;4.462;2022-08-25T09:31:39;31.50;93.00
23681;DHT22;62915;50.832;4.462;2022-08-25T09:34:22;31.70;93.20
23681;DHT22;62915;50.832;4.462;2022-08-25T09:36:49;32.00;92.10
23681;DHT22;62915;50.832;4.462;2022-08-25T09:39:18;32.10;89.80
23681;DHT22;62915;50.832;4.462;2022-08-25T09:41:52;32.20;89.80
23681;DHT22;62915;50.832;4.462;2022-08-25T09:44:33;32.40;89.70
23681;DHT22;62915;50.832;4.462;2022-08-25T09:57:37;33.30;88.80
23681;DHT22;62915;50.832;4.462;2022-08-25T10:02:38;33.70;85.20
23681;DHT22;62915;50.832;4.462;2022-08-25T10:05:21;33.90;87.60
23681;DHT22;62915;50.832;4.462;2022-08-25T10:07:51;34.00;81.70
23681;DHT22;62915;50.832;4.462;2022-08-25T10:10:23;34.10;81.90
23681;DHT22;62915;50.832;4.462;2022-08-25T10:12:50;34.20;80.80
23681;DHT22;62915;50.832;4.462;2022-08-25T10:15:28;34.40;81.30
23681;DHT22;62915;50.832;4.462;2022-08-25T10:17:55;34.50;83.60
23681;DHT22;62915;50.832;4.462;2022-08-25T10:20:26;34.70;79.90
23681;DHT22;62915;50.832;4.462;2022-08-25T10:23:17;34.70;78.00
23681;DHT22;62915;50.832;4.462;2022-08-25T10:25:46;34.80;79.20
23681;DHT22;62915;50.832;4.462;2022-08-25T10:31:16;35.00;78.70
23681;DHT22;62915;50.832;4.462;2022-08-25T10:36:26;35.40;80.80
23681;DHT22;62915;50.832;4.462;2022-08-25T10:39:00;35.40;77.30
23681;DHT22;62915;50.832;4.462;2022-08-25T10:44:34;35.40;73.60
23681;DHT22;62915;50.832;4.462;2022-08-25T10:55:19;35.50;73.10
23681;DHT22;62915;50.832;4.462;2022-08-25T11:00:38;35.50;73.80
23681;DHT22;62915;50.832;4.462;2022-08-25T11:05:54;35.80;70.30
23681;DHT22;62915;50.832;4.462;2022-08-25T11:08:30;35.90;72.40
23681;DHT22;62915;50.832;4.462;2022-08-25T11:14:03;35.90;72.20
23681;DHT22;62915;50.832;4.462;2022-08-25T11:16:50;35.90;70.70
23681;DHT22;62915;50.832;4.462;2022-08-25T11:19:34;35.80;71.40
23681;DHT22;62915;50.832;4.462;2022-08-25T11:27:21;36.00;70.10
23681;DHT22;62915;50.832;4.462;2022-08-25T11:30:08;36.00;68.00
23681;DHT22;62915;50.832;4.462;2022-08-25T11:32:36;36.10;70.20
23681;DHT22;62915;50.832;4.462;2022-08-25T11:35:07;36.00;69.90
23681;DHT22;62915;50.832;4.462;2022-08-25T11:37:33;36.20;69.70
23681;DHT22;62915;50.832;4.462;2022-08-25T11:40:26;36.40;71.70
23681;DHT22;62915;50.832;4.462;2022-08-25T11:43:13;36.50;69.70
23681;DHT22;62915;50.832;4.462;2022-08-25T11:45:56;36.40;67.90
23681;DHT22;62915;50.832;4.462;2022-08-25T11:51:34;36.30;65.20
23681;DHT22;62915;50.832;4.462;2022-08-25T11:54:25;36.50;67.20
23681;DHT22;62915;50.832;4.462;2022-08-25T12:02:46;36.80;67.10
23681;DHT22;62915;50.832;4.462;2022-08-25T12:10:22;36.60;64.00
23681;DHT22;62915;50.832;4.462;2022-08-25T12:12:55;36.50;66.10
23681;DHT22;62915;50.832;4.462;2022-08-25T12:18:16;36.60;66.10
23681;DHT22;62915;50.832;4.462;2022-08-25T12:29:10;36.30;66.60
23681;DHT22;62915;50.832;4.462;2022-08-25T12:40:04;36.00;67.70
23681;DHT22;62915;50.832;4.462;2022-08-25T12:42:39;35.60;69.80
23681;DHT22;62915;50.832;4.462;2022-08-25T12:47:49;35.20;69.40
23681;DHT22;62915;50.832;4.462;2022-08-25T12:50:34;35.00;68.40
23681;DHT22;62915;50.832;4.462;2022-08-25T12:55:40;34.90;67.70
23681;DHT22;62915;50.832;4.462;2022-08-25T12:58:07;35.20;65.90
23681;DHT22;62915;50.832;4.462;2022-08-25T13:00:57;35.40;67.50
23681;DHT22;62915;50.832;4.462;2022-08-25T13:14:41;34.70;68.30
23681;DHT22;62915;50.832;4.462;2022-08-25T13:17:08;34.60;70.30
23681;DHT22;62915;50.832;4.462;2022-08-25T13:19:35;34.50;70.60
23681;DHT22;62915;50.832;4.462;2022-08-25T13:22:21;34.40;70.30
23681;DHT22;62915;50.832;4.462;2022-08-25T13:24:48;34.30;68.30
23681;DHT22;62915;50.832;4.462;2022-08-25T13:27:26;34.30;70.40
23681;DHT22;62915;50.832;4.462;2022-08-25T13:29:55;34.40;76.80
23681;DHT22;62915;50.832;4.462;2022-08-25T13:32:31;34.30;75.10
23681;DHT22;62915;50.832;4.462;2022-08-25T13:37:48;34.30;71.60
23681;DHT22;62915;50.832;4.462;2022-08-25T13:40:27;34.20;72.80
23681;DHT22;62915;50.832;4.462;2022-08-25T13:42:57;34.30;75.70
23681;DHT22;62915;50.832;4.462;2022-08-25T13:45:26;34.50;75.00
23681;DHT22;62915;50.832;4.462;2022-08-25T13:47:53;34.60;67.80
23681;DHT22;62915;50.832;4.462;2022-08-25T13:50:31;34.70;70.10
23681;DHT22;62915;50.832;4.462;2022-08-25T13:53:06;34.90;70.60
23681;DHT22;62915;50.832;4.462;2022-08-25T13:58:21;35.00;66.00
23681;DHT22;62915;50.832;4.462;2022-08-25T14:01:11;35.10;67.40
23681;DHT22;62915;50.832;4.462;2022-08-25T14:03:41;35.30;66.60
23681;DHT22;62915;50.832;4.462;2022-08-25T14:08:42;35.60;68.70
23681;DHT22;62915;50.832;4.462;2022-08-25T14:11:29;35.70;64.50
23681;DHT22;62915;50.832;4.462;2022-08-25T14:14:00;35.70;63.80
23681;DHT22;62915;50.832;4.462;2022-08-25T14:16:27;35.60;68.00
23681;DHT22;62915;50.832;4.462;2022-08-25T14:18:54;35.70;65.50
23681;DHT22;62915;50.832;4.462;2022-08-25T14:21:26;35.60;65.70
23681;DHT22;62915;50.832;4.462;2022-08-25T14:23:53;35.40;71.00
23681;DHT22;62915;50.832;4.462;2022-08-25T14:26:19;35.30;72.10
23681;DHT22;62915;50.832;4.462;2022-08-25T14:28:45;35.20;76.10
23681;DHT22;62915;50.832;4.462;2022-08-25T14:31:15;35.20;78.30
23681;DHT22;62915;50.832;4.462;2022-08-25T14:34:00;35.00;77.80
23681;DHT22;62915;50.832;4.462;2022-08-25T14:36:28;34.80;77.30
23681;DHT22;62915;50.832;4.462;2022-08-25T14:38:54;34.50;78.60
23681;DHT22;62915;50.832;4.462;2022-08-25T14:41:21;34.50;79.30
23681;DHT22;62915;50.832;4.462;2022-08-25T14:43:48;34.60;76.50
23681;DHT22;62915;50.832;4.462;2022-08-25T14:46:22;34.50;77.30
23681;DHT22;62915;50.832;4.462;2022-08-25T14:48:51;34.40;75.80
23681;DHT22;62915;50.832;4.462;2022-08-25T14:51:20;34.20;75.80
23681;DHT22;62915;50.832;4.462;2022-08-25T14:53:47;33.90;77.10
23681;DHT22;62915;50.832;4.462;2022-08-25T14:56:13;33.80;77.10
23681;DHT22;62915;50.832;4.462;2022-08-25T14:58:39;33.70;77.00
23681;DHT22;62915;50.832;4.462;2022-08-25T15:01:05;33.50;77.30
23681;DHT22;62915;50.832;4.462;2022-08-25T15:03:37;33.40;77.00
23681;DHT22;62915;50.832;4.462;2022-08-25T15:06:04;33.40;79.70
23681;DHT22;62915;50.832;4.462;2022-08-25T15:08:30;33.20;78.40
23681;DHT22;62915;50.832;4.462;2022-08-25T15:11:15;33.20;78.70
23681;DHT22;62915;50.832;4.462;2022-08-25T15:13:41;33.20;77.70
23681;DHT22;62915;50.832;4.462;2022-08-25T15:16:08;33.20;78.90
23681;DHT22;62915;50.832;4.462;2022-08-25T15:18:35;33.40;80.00
23681;DHT22;62915;50.832;4.462;2022-08-25T15:21:01;33.40;79.00
23681;DHT22;62915;50.832;4.462;2022-08-25T15:23:27;33.50;79.20
23681;DHT22;62915;50.832;4.462;2022-08-25T15:25:54;33.50;78.70
23681;DHT22;62915;50.832;4.462;2022-08-25T15:28:21;33.60;80.10
23681;DHT22;62915;50.832;4.462;2022-08-25T15:30:46;33.50;79.50
23681;DHT22;62915;50.832;4.462;2022-08-25T15:33:13;33.50;80.80
23681;DHT22;62915;50.832;4.462;2022-08-25T15:35:39;33.30;81.60
23681;DHT22;62915;50.832;4.462;2022-08-25T15:38:05;33.30;81.80
23681;DHT22;62915;50.832;4.462;2022-08-25T15:40:31;33.10;82.50
23681;DHT22;62915;50.832;4.462;2022-08-25T15:42:58;32.90;84.30
23681;DHT22;62915;50.832;4.462;2022-08-25T15:45:25;32.70;86.50
23681;DHT22;62915;50.832;4.462;2022-08-25T15:47:51;32.70;87.70
23681;DHT22;62915;50.832;4.462;2022-08-25T15:50:19;32.50;89.40
23681;DHT22;62915;50.832;4.462;2022-08-25T15:52:46;32.30;90.90
23681;DHT22;62915;50.832;4.462;2022-08-25T15:55:12;32.00;91.20
23681;DHT22;62915;50.832;4.462;2022-08-25T15:57:38;31.90;91.90
23681;DHT22;62915;50.832;4.462;2022-08-25T16:00:07;31.80;91.90
23681;DHT22;62915;50.832;4.462;2022-08-25T16:02:35;31.80;92.10
23681;DHT22;62915;50.832;4.462;2022-08-25T16:05:02;31.70;92.60
23681;DHT22;62915;50.832;4.462;2022-08-25T16:07:28;31.70;92.30
23681;DHT22;62915;50.832;4.462;2022-08-25T16:09:57;31.60;93.00
23681;DHT22;62915;50.832;4.462;2022-08-25T16:12:24;31.60;93.10
23681;DHT22;62915;50.832;4.462;2022-08-25T16:14:50;31.60;93.50
23681;DHT22;62915;50.832;4.462;2022-08-25T16:17:17;31.60;93.50
23681;DHT22;62915;50.832;4.462;2022-08-25T16:19:44;31.50;94.40
23681;DHT22;62915;50.832;4.462;2022-08-25T16:22:10;31.40;94.80
23681;DHT22;62915;50.832;4.462;2022-08-25T16:24:38;31.30;95.40
23681;DHT22;62915;50.832;4.462;2022-08-25T16:27:05;31.20;96.00
23681;DHT22;62915;50.832;4.462;2022-08-25T16:29:33;31.20;96.40
23681;DHT22;62915;50.832;4.462;2022-08-25T16:31:59;31.00;96.80
23681;DHT22;62915;50.832;4.462;2022-08-25T16:34:25;30.90;97.40
23681;DHT22;62915;50.832;4.462;2022-08-25T16:36:52;30.90;97.80
23681;DHT22;62915;50.832;4.462;2022-08-25T16:39:19;30.80;97.60
23681;DHT22;62915;50.832;4.462;2022-08-25T16:41:45;30.60;97.90
23681;DHT22;62915;50.832;4.462;2022-08-25T16:44:11;30.60;98.00
23681;DHT22;62915;50.832;4.462;2022-08-25T16:46:37;30.50;98.20
23681;DHT22;62915;50.832;4.462;2022-08-25T16:49:05;30.40;98.60
23681;DHT22;62915;50.832;4.462;2022-08-25T16:51:31;30.40;99.30
23681;DHT22;62915;50.832;4.462;2022-08-25T16:53:57;30.30;99.90
23681;DHT22;62915;50.832;4.462;2022-08-25T16:56:41;30.30;99.90
23681;DHT22;62915;50.832;4.462;2022-08-25T16:59:10;30.20;99.90
23681;DHT22;62915;50.832;4.462;2022-08-25T17:01:37;30.20;99.90
23681;DHT22;62915;50.832;4.462;2022-08-25T17:04:04;30.20;99.90
23681;DHT22;62915;50.832;4.462;2022-08-25T17:06:34;30.20;99.90
23681;DHT22;62915;50.832;4.462;2022-08-25T17:09:00;30.00;99.90
23681;DHT22;62915;50.832;4.462;2022-08-25T17:11:29;29.90;99.90
23681;DHT22;62915;50.832;4.462;2022-08-25T17:13:57;29.90;99.90
23681;DHT22;62915;50.832;4.462;2022-08-25T17:16:26;29.70;99.90
23681;DHT22;62915;50.832;4.462;2022-08-25T17:18:55;29.60;99.90
23681;DHT22;62915;50.832;4.462;2022-08-25T17:21:22;29.50;99.90
23681;DHT22;62915;50.832;4.462;2022-08-25T17:23:52;29.60;99.90
23681;DHT22;62915;50.832;4.462;2022-08-25T17:26:18;29.60;99.90
23681;DHT22;62915;50.832;4.462;2022-08-25T17:28:44;29.60;99.90
23681;DHT22;62915;50.832;4.462;2022-08-25T17:31:12;29.70;99.90
23681;DHT22;62915;50.832;4.462;2022-08-25T17:33:38;29.70;99.90
23681;DHT22;62915;50.832;4.462;2022-08-25T17:36:04;29.70;99.90
23681;DHT22;62915;50.832;4.462;2022-08-25T17:38:31;29.50;99.90
23681;DHT22;62915;50.832;4.462;2022-08-25T17:41:00;29.40;99.90
23681;DHT22;62915;50.832;4.462;2022-08-25T17:43:27;29.40;99.90
23681;DHT22;62915;50.832;4.462;2022-08-25T17:45:54;29.40;99.90
23681;DHT22;62915;50.832;4.462;2022-08-25T17:48:23;29.30;99.90
23681;DHT22;62915;50.832;4.462;2022-08-25T17:50:49;29.20;99.90
23681;DHT22;62915;50.832;4.462;2022-08-25T17:53:15;29.10;99.90
23681;DHT22;62915;50.832;4.462;2022-08-25T17:55:42;29.00;99.90